sensor_id;sensor_type;location;lat;lon;timestamp;P1;durP1;ratioP1;P2;durP2;ratioP2
46835;SDS011;32573;51.290;6.926;2024-01-27T00:00:16;4.60;;;1.92;;
46835;SDS011;32573;51.290;6.926;2024-01-27T00:02:45;4.88;;;1.73;;
46835;SDS011;32573;51.290;6.926;2024-01-27T00:05:25;4.45;;;2.10;;
46835;SDS011;32573;51.290;6.926;2024-01-27T00:08:01;5.95;;;2.10;;
46835;SDS011;32573;51.290;6.926;2024-01-27T00:10:31;6.72;;;2.20;;
46835;SDS011;32573;51.290;6.926;2024-01-27T00:12:59;4.53;;;2.00;;
46835;SDS011;32573;51.290;6.926;2024-01-27T00:15:28;4.72;;;1.70;;
46835;SDS011;32573;51.290;6.926;2024-01-27T00:17:57;6.30;;;2.13;;
46835;SDS011;32573;51.290;6.926;2024-01-27T00:20:28;6.07;;;2.40;;
46835;SDS011;32573;51.290;6.926;2024-01-27T00:23:02;6.47;;;2.20;;
46835;SDS011;32573;51.290;6.926;2024-01-27T00:25:38;6.10;;;2.50;;
46835;SDS011;32573;51.290;6.926;2024-01-27T00:28:07;5.53;;;1.92;;
46835;SDS011;32573;51.290;6.926;2024-01-27T00:30:36;6.30;;;2.00;;
46835;SDS011;32573;51.290;6.926;2024-01-27T00:33:04;6.88;;;2.30;;
46835;SDS011;32573;51.290;6.926;2024-01-27T00:35:33;5.15;;;1.83;;
46835;SDS011;32573;51.290;6.926;2024-01-27T00:38:04;6.47;;;2.13;;
46835;SDS011;32573;51.290;6.926;2024-01-27T00:40:43;7.28;;;2.22;;
46835;SDS011;32573;51.290;6.926;2024-01-27T00:43:11;5.05;;;2.00;;
46835;SDS011;32573;51.290;6.926;2024-01-27T00:45:40;7.53;;;2.30;;
46835;SDS011;32573;51.290;6.926;2024-01-27T00:48:08;4.57;;;2.03;;
46835;SDS011;32573;51.290;6.926;2024-01-27T00:50:40;5.97;;;2.50;;
46835;SDS011;32573;51.290;6.926;2024-01-27T00:53:16;6.68;;;2.03;;
46835;SDS011;32573;51.290;6.926;2024-01-27T00:55:46;4.63;;;1.83;;
46835;SDS011;32573;51.290;6.926;2024-01-27T00:58:14;4.68;;;1.60;;
46835;SDS011;32573;51.290;6.926;2024-01-27T01:00:47;4.80;;;1.83;;
46835;SDS011;32573;51.290;6.926;2024-01-27T01:03:15;5.40;;;1.98;;
46835;SDS011;32573;51.290;6.926;2024-01-27T01:05:47;5.57;;;1.73;;
46835;SDS011;32573;51.290;6.926;2024-01-27T01:08:18;5.53;;;1.60;;
46835;SDS011;32573;51.290;6.926;2024-01-27T01:10:48;3.58;;;1.60;;
46835;SDS011;32573;51.290;6.926;2024-01-27T01:13:17;5.72;;;1.77;;
46835;SDS011;32573;51.290;6.926;2024-01-27T01:15:45;4.22;;;1.60;;
46835;SDS011;32573;51.290;6.926;2024-01-27T01:18:14;4.35;;;1.80;;
46835;SDS011;32573;51.290;6.926;2024-01-27T01:20:42;3.55;;;1.60;;
46835;SDS011;32573;51.290;6.926;2024-01-27T01:23:11;3.90;;;1.40;;
46835;SDS011;32573;51.290;6.926;2024-01-27T01:25:39;4.93;;;1.65;;
46835;SDS011;32573;51.290;6.926;2024-01-27T01:28:09;5.07;;;1.40;;
46835;SDS011;32573;51.290;6.926;2024-01-27T01:30:38;3.63;;;1.38;;
46835;SDS011;32573;51.290;6.926;2024-01-27T01:33:06;3.53;;;1.40;;
46835;SDS011;32573;51.290;6.926;2024-01-27T01:35:35;3.90;;;1.52;;
46835;SDS011;32573;51.290;6.926;2024-01-27T01:38:04;3.88;;;1.55;;
46835;SDS011;32573;51.290;6.926;2024-01-27T01:40:33;5.28;;;1.70;;
46835;SDS011;32573;51.290;6.926;2024-01-27T01:43:01;5.70;;;1.80;;
46835;SDS011;32573;51.290;6.926;2024-01-27T01:45:32;4.13;;;1.38;;
46835;SDS011;32573;51.290;6.926;2024-01-27T01:48:01;5.60;;;1.55;;
46835;SDS011;32573;51.290;6.926;2024-01-27T01:50:29;2.90;;;1.20;;
46835;SDS011;32573;51.290;6.926;2024-01-27T01:52:58;3.55;;;1.30;;
46835;SDS011;32573;51.290;6.926;2024-01-27T01:55:27;5.18;;;1.63;;
46835;SDS011;32573;51.290;6.926;2024-01-27T01:57:56;4.30;;;1.52;;
46835;SDS011;32573;51.290;6.926;2024-01-27T02:00:24;3.08;;;1.50;;
46835;SDS011;32573;51.290;6.926;2024-01-27T02:02:54;3.65;;;1.35;;
46835;SDS011;32573;51.290;6.926;2024-01-27T02:05:22;3.55;;;1.30;;
46835;SDS011;32573;51.290;6.926;2024-01-27T02:07:51;2.67;;;1.27;;
46835;SDS011;32573;51.290;6.926;2024-01-27T02:10:23;2.65;;;1.25;;
46835;SDS011;32573;51.290;6.926;2024-01-27T02:12:51;2.97;;;1.40;;
46835;SDS011;32573;51.290;6.926;2024-01-27T02:15:20;3.80;;;1.10;;
46835;SDS011;32573;51.290;6.926;2024-01-27T02:17:49;3.30;;;1.30;;
46835;SDS011;32573;51.290;6.926;2024-01-27T02:20:19;4.40;;;1.35;;
46835;SDS011;32573;51.290;6.926;2024-01-27T02:22:47;3.13;;;1.20;;
46835;SDS011;32573;51.290;6.926;2024-01-27T02:25:17;3.17;;;1.30;;
46835;SDS011;32573;51.290;6.926;2024-01-27T02:27:45;2.80;;;1.15;;
46835;SDS011;32573;51.290;6.926;2024-01-27T02:30:13;3.35;;;1.13;;
46835;SDS011;32573;51.290;6.926;2024-01-27T02:32:42;3.70;;;1.30;;
46835;SDS011;32573;51.290;6.926;2024-01-27T02:35:10;5.18;;;1.40;;
46835;SDS011;32573;51.290;6.926;2024-01-27T02:37:39;3.72;;;1.25;;
46835;SDS011;32573;51.290;6.926;2024-01-27T02:40:08;4.28;;;1.20;;
46835;SDS011;32573;51.290;6.926;2024-01-27T02:42:38;2.80;;;1.20;;
46835;SDS011;32573;51.290;6.926;2024-01-27T02:45:09;4.45;;;1.30;;
46835;SDS011;32573;51.290;6.926;2024-01-27T02:47:38;4.38;;;1.30;;
46835;SDS011;32573;51.290;6.926;2024-01-27T02:50:06;2.58;;;1.23;;
46835;SDS011;32573;51.290;6.926;2024-01-27T02:52:35;2.83;;;1.35;;
46835;SDS011;32573;51.290;6.926;2024-01-27T02:55:05;4.07;;;1.25;;
46835;SDS011;32573;51.290;6.926;2024-01-27T02:57:34;3.63;;;1.20;;
46835;SDS011;32573;51.290;6.926;2024-01-27T03:00:04;3.75;;;1.10;;
46835;SDS011;32573;51.290;6.926;2024-01-27T03:02:33;3.25;;;1.17;;
46835;SDS011;32573;51.290;6.926;2024-01-27T03:05:01;4.18;;;1.23;;
46835;SDS011;32573;51.290;6.926;2024-01-27T03:07:29;4.60;;;1.35;;
46835;SDS011;32573;51.290;6.926;2024-01-27T03:09:58;2.80;;;1.23;;
46835;SDS011;32573;51.290;6.926;2024-01-27T03:12:26;3.22;;;1.25;;
46835;SDS011;32573;51.290;6.926;2024-01-27T03:14:55;4.03;;;1.48;;
46835;SDS011;32573;51.290;6.926;2024-01-27T03:17:24;3.05;;;1.40;;
46835;SDS011;32573;51.290;6.926;2024-01-27T03:19:53;5.75;;;1.50;;
46835;SDS011;32573;51.290;6.926;2024-01-27T03:22:21;5.15;;;1.50;;
46835;SDS011;32573;51.290;6.926;2024-01-27T03:24:50;3.78;;;1.40;;
46835;SDS011;32573;51.290;6.926;2024-01-27T03:27:20;2.50;;;1.15;;
46835;SDS011;32573;51.290;6.926;2024-01-27T03:29:48;3.67;;;1.33;;
46835;SDS011;32573;51.290;6.926;2024-01-27T03:32:16;3.60;;;1.40;;
46835;SDS011;32573;51.290;6.926;2024-01-27T03:34:46;3.92;;;1.42;;
46835;SDS011;32573;51.290;6.926;2024-01-27T03:37:15;3.25;;;1.35;;
46835;SDS011;32573;51.290;6.926;2024-01-27T03:39:43;4.65;;;1.48;;
46835;SDS011;32573;51.290;6.926;2024-01-27T03:42:12;4.55;;;1.40;;
46835;SDS011;32573;51.290;6.926;2024-01-27T03:44:40;4.63;;;1.10;;
46835;SDS011;32573;51.290;6.926;2024-01-27T03:47:08;2.78;;;1.20;;
46835;SDS011;32573;51.290;6.926;2024-01-27T03:49:37;2.70;;;1.33;;
46835;SDS011;32573;51.290;6.926;2024-01-27T03:52:07;2.53;;;1.20;;
46835;SDS011;32573;51.290;6.926;2024-01-27T03:54:37;4.97;;;1.40;;
46835;SDS011;32573;51.290;6.926;2024-01-27T03:57:05;2.75;;;1.20;;
46835;SDS011;32573;51.290;6.926;2024-01-27T03:59:34;3.65;;;1.30;;
46835;SDS011;32573;51.290;6.926;2024-01-27T04:02:02;3.45;;;1.40;;
46835;SDS011;32573;51.290;6.926;2024-01-27T04:04:31;4.88;;;1.75;;
46835;SDS011;32573;51.290;6.926;2024-01-27T04:07:00;4.28;;;1.55;;
46835;SDS011;32573;51.290;6.926;2024-01-27T04:09:31;3.72;;;1.40;;
46835;SDS011;32573;51.290;6.926;2024-01-27T04:12:00;4.95;;;1.50;;
46835;SDS011;32573;51.290;6.926;2024-01-27T04:14:30;5.20;;;1.50;;
46835;SDS011;32573;51.290;6.926;2024-01-27T04:16:59;3.42;;;1.40;;
46835;SDS011;32573;51.290;6.926;2024-01-27T04:19:28;4.55;;;1.55;;
46835;SDS011;32573;51.290;6.926;2024-01-27T04:21:56;4.47;;;1.55;;
46835;SDS011;32573;51.290;6.926;2024-01-27T04:24:25;3.50;;;1.33;;
46835;SDS011;32573;51.290;6.926;2024-01-27T04:26:58;3.42;;;1.48;;
46835;SDS011;32573;51.290;6.926;2024-01-27T04:29:29;2.72;;;1.35;;
46835;SDS011;32573;51.290;6.926;2024-01-27T04:31:58;3.78;;;1.33;;
46835;SDS011;32573;51.290;6.926;2024-01-27T04:34:27;3.08;;;1.38;;
46835;SDS011;32573;51.290;6.926;2024-01-27T04:36:57;3.97;;;1.52;;
46835;SDS011;32573;51.290;6.926;2024-01-27T04:39:25;3.03;;;1.50;;
46835;SDS011;32573;51.290;6.926;2024-01-27T04:41:54;3.05;;;1.40;;
46835;SDS011;32573;51.290;6.926;2024-01-27T04:44:24;5.35;;;1.75;;
46835;SDS011;32573;51.290;6.926;2024-01-27T04:46:54;3.67;;;1.50;;
46835;SDS011;32573;51.290;6.926;2024-01-27T04:49:22;4.45;;;1.60;;
46835;SDS011;32573;51.290;6.926;2024-01-27T04:51:52;3.05;;;1.30;;
46835;SDS011;32573;51.290;6.926;2024-01-27T04:54:21;3.63;;;1.52;;
46835;SDS011;32573;51.290;6.926;2024-01-27T04:56:50;4.40;;;1.50;;
46835;SDS011;32573;51.290;6.926;2024-01-27T04:59:20;4.25;;;1.70;;
46835;SDS011;32573;51.290;6.926;2024-01-27T05:01:50;3.88;;;1.52;;
46835;SDS011;32573;51.290;6.926;2024-01-27T05:04:19;4.68;;;1.90;;
46835;SDS011;32573;51.290;6.926;2024-01-27T05:09:22;3.67;;;1.50;;
46835;SDS011;32573;51.290;6.926;2024-01-27T05:11:51;4.10;;;1.60;;
46835;SDS011;32573;51.290;6.926;2024-01-27T05:14:20;3.65;;;1.58;;
46835;SDS011;32573;51.290;6.926;2024-01-27T05:16:50;3.92;;;1.50;;
46835;SDS011;32573;51.290;6.926;2024-01-27T05:19:18;5.55;;;1.65;;
46835;SDS011;32573;51.290;6.926;2024-01-27T05:21:47;3.80;;;1.50;;
46835;SDS011;32573;51.290;6.926;2024-01-27T05:24:15;6.00;;;1.75;;
46835;SDS011;32573;51.290;6.926;2024-01-27T05:26:44;3.70;;;1.60;;
46835;SDS011;32573;51.290;6.926;2024-01-27T05:29:12;2.90;;;1.42;;
46835;SDS011;32573;51.290;6.926;2024-01-27T05:31:41;3.67;;;1.50;;
46835;SDS011;32573;51.290;6.926;2024-01-27T05:34:12;5.20;;;1.67;;
46835;SDS011;32573;51.290;6.926;2024-01-27T05:36:40;3.72;;;1.45;;
46835;SDS011;32573;51.290;6.926;2024-01-27T05:39:09;5.30;;;1.70;;
46835;SDS011;32573;51.290;6.926;2024-01-27T05:41:38;3.85;;;1.40;;
46835;SDS011;32573;51.290;6.926;2024-01-27T05:44:06;4.70;;;1.60;;
46835;SDS011;32573;51.290;6.926;2024-01-27T05:46:34;5.13;;;1.50;;
46835;SDS011;32573;51.290;6.926;2024-01-27T05:49:03;6.07;;;1.85;;
46835;SDS011;32573;51.290;6.926;2024-01-27T05:51:33;3.97;;;1.60;;
46835;SDS011;32573;51.290;6.926;2024-01-27T05:54:02;5.50;;;1.65;;
46835;SDS011;32573;51.290;6.926;2024-01-27T05:56:35;4.00;;;1.58;;
46835;SDS011;32573;51.290;6.926;2024-01-27T05:59:05;4.93;;;1.50;;
46835;SDS011;32573;51.290;6.926;2024-01-27T06:01:34;4.55;;;1.90;;
46835;SDS011;32573;51.290;6.926;2024-01-27T06:04:03;4.97;;;1.70;;
46835;SDS011;32573;51.290;6.926;2024-01-27T06:06:32;5.70;;;1.50;;
46835;SDS011;32573;51.290;6.926;2024-01-27T06:09:02;4.65;;;1.50;;
46835;SDS011;32573;51.290;6.926;2024-01-27T06:11:31;3.75;;;1.60;;
46835;SDS011;32573;51.290;6.926;2024-01-27T06:14:00;5.15;;;1.83;;
46835;SDS011;32573;51.290;6.926;2024-01-27T06:16:28;3.92;;;1.60;;
46835;SDS011;32573;51.290;6.926;2024-01-27T06:18:57;4.32;;;1.50;;
46835;SDS011;32573;51.290;6.926;2024-01-27T06:21:26;5.13;;;1.50;;
46835;SDS011;32573;51.290;6.926;2024-01-27T06:23:55;4.60;;;1.80;;
46835;SDS011;32573;51.290;6.926;2024-01-27T06:26:24;3.63;;;1.40;;
46835;SDS011;32573;51.290;6.926;2024-01-27T06:28:52;4.20;;;1.60;;
46835;SDS011;32573;51.290;6.926;2024-01-27T06:31:21;4.00;;;1.65;;
46835;SDS011;32573;51.290;6.926;2024-01-27T06:33:49;5.00;;;1.60;;
46835;SDS011;32573;51.290;6.926;2024-01-27T06:36:18;6.10;;;1.50;;
46835;SDS011;32573;51.290;6.926;2024-01-27T06:38:50;5.38;;;1.67;;
46835;SDS011;32573;51.290;6.926;2024-01-27T06:41:19;5.53;;;1.77;;
46835;SDS011;32573;51.290;6.926;2024-01-27T06:43:48;5.07;;;1.73;;
46835;SDS011;32573;51.290;6.926;2024-01-27T06:46:17;4.07;;;1.60;;
46835;SDS011;32573;51.290;6.926;2024-01-27T06:48:45;4.47;;;1.98;;
46835;SDS011;32573;51.290;6.926;2024-01-27T06:51:14;4.70;;;1.75;;
46835;SDS011;32573;51.290;6.926;2024-01-27T06:53:42;3.58;;;1.27;;
46835;SDS011;32573;51.290;6.926;2024-01-27T06:56:11;4.07;;;1.73;;
46835;SDS011;32573;51.290;6.926;2024-01-27T06:58:40;3.22;;;1.55;;
46835;SDS011;32573;51.290;6.926;2024-01-27T07:01:09;4.15;;;1.55;;
46835;SDS011;32573;51.290;6.926;2024-01-27T07:03:37;4.38;;;1.50;;
46835;SDS011;32573;51.290;6.926;2024-01-27T07:06:07;6.18;;;1.83;;
46835;SDS011;32573;51.290;6.926;2024-01-27T07:08:36;4.20;;;1.58;;
46835;SDS011;32573;51.290;6.926;2024-01-27T07:11:05;5.57;;;1.88;;
46835;SDS011;32573;51.290;6.926;2024-01-27T07:13:34;4.68;;;1.75;;
46835;SDS011;32573;51.290;6.926;2024-01-27T07:16:04;4.18;;;1.67;;
46835;SDS011;32573;51.290;6.926;2024-01-27T07:18:33;6.28;;;1.70;;
46835;SDS011;32573;51.290;6.926;2024-01-27T07:21:03;4.55;;;1.60;;
46835;SDS011;32573;51.290;6.926;2024-01-27T07:23:35;5.40;;;2.15;;
46835;SDS011;32573;51.290;6.926;2024-01-27T07:26:03;4.32;;;1.70;;
46835;SDS011;32573;51.290;6.926;2024-01-27T07:28:31;5.45;;;1.95;;
46835;SDS011;32573;51.290;6.926;2024-01-27T07:31:01;3.70;;;1.60;;
46835;SDS011;32573;51.290;6.926;2024-01-27T07:33:31;4.95;;;1.80;;
46835;SDS011;32573;51.290;6.926;2024-01-27T07:35:59;5.15;;;1.92;;
46835;SDS011;32573;51.290;6.926;2024-01-27T07:38:28;4.18;;;1.83;;
46835;SDS011;32573;51.290;6.926;2024-01-27T07:40:57;5.85;;;1.80;;
46835;SDS011;32573;51.290;6.926;2024-01-27T07:43:26;5.20;;;1.63;;
46835;SDS011;32573;51.290;6.926;2024-01-27T07:45:54;5.43;;;1.90;;
46835;SDS011;32573;51.290;6.926;2024-01-27T07:48:22;6.55;;;2.15;;
46835;SDS011;32573;51.290;6.926;2024-01-27T07:50:52;4.57;;;1.60;;
46835;SDS011;32573;51.290;6.926;2024-01-27T07:53:23;4.93;;;1.85;;
46835;SDS011;32573;51.290;6.926;2024-01-27T07:55:52;4.20;;;1.67;;
46835;SDS011;32573;51.290;6.926;2024-01-27T07:58:23;7.22;;;1.73;;
46835;SDS011;32573;51.290;6.926;2024-01-27T08:00:51;4.93;;;1.80;;
46835;SDS011;32573;51.290;6.926;2024-01-27T08:03:20;4.90;;;1.60;;
46835;SDS011;32573;51.290;6.926;2024-01-27T08:05:48;5.18;;;1.63;;
46835;SDS011;32573;51.290;6.926;2024-01-27T08:08:18;5.45;;;1.85;;
46835;SDS011;32573;51.290;6.926;2024-01-27T08:10:46;5.60;;;1.60;;
46835;SDS011;32573;51.290;6.926;2024-01-27T08:13:15;4.95;;;1.75;;
46835;SDS011;32573;51.290;6.926;2024-01-27T08:15:43;4.78;;;1.70;;
46835;SDS011;32573;51.290;6.926;2024-01-27T08:18:11;5.85;;;1.50;;
46835;SDS011;32573;51.290;6.926;2024-01-27T08:20:40;5.05;;;1.60;;
46835;SDS011;32573;51.290;6.926;2024-01-27T08:23:08;4.60;;;1.60;;
46835;SDS011;32573;51.290;6.926;2024-01-27T08:25:38;4.13;;;1.55;;
46835;SDS011;32573;51.290;6.926;2024-01-27T08:28:08;4.13;;;1.50;;
46835;SDS011;32573;51.290;6.926;2024-01-27T08:30:36;2.97;;;1.50;;
46835;SDS011;32573;51.290;6.926;2024-01-27T08:33:05;3.88;;;1.65;;
46835;SDS011;32573;51.290;6.926;2024-01-27T08:35:33;4.15;;;1.40;;
46835;SDS011;32573;51.290;6.926;2024-01-27T08:38:01;3.67;;;1.50;;
46835;SDS011;32573;51.290;6.926;2024-01-27T08:40:30;4.38;;;1.70;;
46835;SDS011;32573;51.290;6.926;2024-01-27T08:43:00;6.00;;;1.60;;
46835;SDS011;32573;51.290;6.926;2024-01-27T08:45:28;4.80;;;1.70;;
46835;SDS011;32573;51.290;6.926;2024-01-27T08:47:57;4.95;;;1.60;;
46835;SDS011;32573;51.290;6.926;2024-01-27T08:50:26;6.30;;;1.63;;
46835;SDS011;32573;51.290;6.926;2024-01-27T08:52:54;5.53;;;1.40;;
46835;SDS011;32573;51.290;6.926;2024-01-27T08:55:22;5.20;;;1.60;;
46835;SDS011;32573;51.290;6.926;2024-01-27T08:57:51;4.25;;;1.60;;
46835;SDS011;32573;51.290;6.926;2024-01-27T09:00:21;4.20;;;1.50;;
46835;SDS011;32573;51.290;6.926;2024-01-27T09:02:50;3.60;;;1.38;;
46835;SDS011;32573;51.290;6.926;2024-01-27T09:05:20;5.05;;;1.67;;
46835;SDS011;32573;51.290;6.926;2024-01-27T09:07:48;4.40;;;1.20;;
46835;SDS011;32573;51.290;6.926;2024-01-27T09:10:16;5.43;;;1.30;;
46835;SDS011;32573;51.290;6.926;2024-01-27T09:12:45;4.18;;;1.45;;
46835;SDS011;32573;51.290;6.926;2024-01-27T09:15:13;5.18;;;1.55;;
46835;SDS011;32573;51.290;6.926;2024-01-27T09:17:43;6.78;;;1.80;;
46835;SDS011;32573;51.290;6.926;2024-01-27T09:20:11;4.47;;;1.45;;
46835;SDS011;32573;51.290;6.926;2024-01-27T09:22:40;3.58;;;1.48;;
46835;SDS011;32573;51.290;6.926;2024-01-27T09:25:09;4.65;;;1.80;;
46835;SDS011;32573;51.290;6.926;2024-01-27T09:27:37;4.30;;;1.35;;
46835;SDS011;32573;51.290;6.926;2024-01-27T09:30:06;3.78;;;1.40;;
46835;SDS011;32573;51.290;6.926;2024-01-27T09:32:35;5.60;;;1.60;;
46835;SDS011;32573;51.290;6.926;2024-01-27T09:35:06;5.13;;;1.50;;
46835;SDS011;32573;51.290;6.926;2024-01-27T09:37:34;4.75;;;1.50;;
46835;SDS011;32573;51.290;6.926;2024-01-27T09:40:03;6.35;;;1.52;;
46835;SDS011;32573;51.290;6.926;2024-01-27T09:42:32;6.90;;;1.70;;
46835;SDS011;32573;51.290;6.926;2024-01-27T09:45:02;3.58;;;1.30;;
46835;SDS011;32573;51.290;6.926;2024-01-27T09:47:31;3.83;;;1.42;;
46835;SDS011;32573;51.290;6.926;2024-01-27T09:50:01;4.68;;;1.50;;
46835;SDS011;32573;51.290;6.926;2024-01-27T09:52:31;4.68;;;1.60;;
46835;SDS011;32573;51.290;6.926;2024-01-27T09:55:00;4.20;;;1.40;;
46835;SDS011;32573;51.290;6.926;2024-01-27T09:57:28;4.30;;;1.38;;
46835;SDS011;32573;51.290;6.926;2024-01-27T09:59:57;4.45;;;1.30;;
46835;SDS011;32573;51.290;6.926;2024-01-27T10:02:27;5.53;;;1.52;;
46835;SDS011;32573;51.290;6.926;2024-01-27T10:04:58;5.35;;;1.60;;
46835;SDS011;32573;51.290;6.926;2024-01-27T10:07:27;3.85;;;1.50;;
46835;SDS011;32573;51.290;6.926;2024-01-27T10:09:57;3.97;;;1.33;;
46835;SDS011;32573;51.290;6.926;2024-01-27T10:12:26;5.55;;;1.65;;
46835;SDS011;32573;51.290;6.926;2024-01-27T10:14:56;4.25;;;1.33;;
46835;SDS011;32573;51.290;6.926;2024-01-27T10:17:25;5.93;;;1.67;;
46835;SDS011;32573;51.290;6.926;2024-01-27T10:19:59;4.28;;;1.40;;
46835;SDS011;32573;51.290;6.926;2024-01-27T10:22:28;5.22;;;1.60;;
46835;SDS011;32573;51.290;6.926;2024-01-27T10:25:17;4.25;;;1.45;;
46835;SDS011;32573;51.290;6.926;2024-01-27T10:27:49;3.90;;;1.40;;
46835;SDS011;32573;51.290;6.926;2024-01-27T10:30:20;4.47;;;1.52;;
46835;SDS011;32573;51.290;6.926;2024-01-27T10:32:54;4.50;;;1.50;;
46835;SDS011;32573;51.290;6.926;2024-01-27T10:35:25;5.03;;;1.30;;
46835;SDS011;32573;51.290;6.926;2024-01-27T10:37:55;5.38;;;1.73;;
46835;SDS011;32573;51.290;6.926;2024-01-27T10:40:29;3.55;;;1.35;;
46835;SDS011;32573;51.290;6.926;2024-01-27T10:43:16;5.75;;;1.63;;
46835;SDS011;32573;51.290;6.926;2024-01-27T10:45:47;4.88;;;1.20;;
46835;SDS011;32573;51.290;6.926;2024-01-27T10:48:20;3.65;;;1.30;;
46835;SDS011;32573;51.290;6.926;2024-01-27T10:51:03;4.53;;;1.63;;
46835;SDS011;32573;51.290;6.926;2024-01-27T10:53:36;6.65;;;1.42;;
46835;SDS011;32573;51.290;6.926;2024-01-27T10:56:13;6.18;;;1.45;;
46835;SDS011;32573;51.290;6.926;2024-01-27T10:58:42;4.75;;;1.70;;
46835;SDS011;32573;51.290;6.926;2024-01-27T11:01:15;4.80;;;1.60;;
46835;SDS011;32573;51.290;6.926;2024-01-27T11:03:49;5.22;;;1.42;;
46835;SDS011;32573;51.290;6.926;2024-01-27T11:06:23;3.38;;;1.35;;
46835;SDS011;32573;51.290;6.926;2024-01-27T11:08:56;6.43;;;1.73;;
46835;SDS011;32573;51.290;6.926;2024-01-27T11:11:34;4.97;;;1.60;;
46835;SDS011;32573;51.290;6.926;2024-01-27T11:14:11;4.72;;;1.75;;
46835;SDS011;32573;51.290;6.926;2024-01-27T11:16:41;4.95;;;1.50;;
46835;SDS011;32573;51.290;6.926;2024-01-27T11:19:16;4.65;;;1.73;;
46835;SDS011;32573;51.290;6.926;2024-01-27T11:21:47;3.75;;;1.52;;
46835;SDS011;32573;51.290;6.926;2024-01-27T11:24:27;4.28;;;1.58;;
46835;SDS011;32573;51.290;6.926;2024-01-27T11:27:01;4.05;;;1.38;;
46835;SDS011;32573;51.290;6.926;2024-01-27T11:29:30;6.30;;;2.10;;
46835;SDS011;32573;51.290;6.926;2024-01-27T11:32:00;4.53;;;1.85;;
46835;SDS011;32573;51.290;6.926;2024-01-27T11:34:40;3.25;;;1.60;;
46835;SDS011;32573;51.290;6.926;2024-01-27T11:37:10;4.80;;;1.75;;
46835;SDS011;32573;51.290;6.926;2024-01-27T11:39:43;5.43;;;1.60;;
46835;SDS011;32573;51.290;6.926;2024-01-27T11:42:13;3.85;;;1.30;;
46835;SDS011;32573;51.290;6.926;2024-01-27T11:44:46;4.70;;;1.50;;
46835;SDS011;32573;51.290;6.926;2024-01-27T11:47:17;6.43;;;1.70;;
46835;SDS011;32573;51.290;6.926;2024-01-27T11:49:50;3.25;;;1.45;;
46835;SDS011;32573;51.290;6.926;2024-01-27T11:52:30;3.22;;;1.45;;
46835;SDS011;32573;51.290;6.926;2024-01-27T11:55:00;5.35;;;1.67;;
46835;SDS011;32573;51.290;6.926;2024-01-27T11:57:34;4.30;;;1.80;;
46835;SDS011;32573;51.290;6.926;2024-01-27T12:00:05;4.85;;;1.48;;
46835;SDS011;32573;51.290;6.926;2024-01-27T12:02:36;3.95;;;1.42;;
46835;SDS011;32573;51.290;6.926;2024-01-27T12:05:10;5.43;;;1.45;;
46835;SDS011;32573;51.290;6.926;2024-01-27T12:07:44;5.22;;;1.52;;
46835;SDS011;32573;51.290;6.926;2024-01-27T12:10:15;3.92;;;1.40;;
46835;SDS011;32573;51.290;6.926;2024-01-27T12:12:46;5.15;;;1.40;;
46835;SDS011;32573;51.290;6.926;2024-01-27T12:15:15;4.28;;;1.60;;
46835;SDS011;32573;51.290;6.926;2024-01-27T12:17:49;3.72;;;1.45;;
46835;SDS011;32573;51.290;6.926;2024-01-27T12:20:19;5.40;;;1.42;;
46835;SDS011;32573;51.290;6.926;2024-01-27T12:22:50;3.47;;;1.48;;
46835;SDS011;32573;51.290;6.926;2024-01-27T12:25:31;6.57;;;1.77;;
46835;SDS011;32573;51.290;6.926;2024-01-27T12:28:03;4.43;;;1.52;;
46835;SDS011;32573;51.290;6.926;2024-01-27T12:30:38;4.22;;;1.50;;
46835;SDS011;32573;51.290;6.926;2024-01-27T12:33:09;3.72;;;1.55;;
46835;SDS011;32573;51.290;6.926;2024-01-27T12:36:25;7.07;;;2.05;;
46835;SDS011;32573;51.290;6.926;2024-01-27T12:41:28;4.50;;;1.40;;
46835;SDS011;32573;51.290;6.926;2024-01-27T12:43:59;5.88;;;1.40;;
46835;SDS011;32573;51.290;6.926;2024-01-27T12:46:28;6.10;;;1.83;;
46835;SDS011;32573;51.290;6.926;2024-01-27T12:48:58;5.93;;;1.70;;
46835;SDS011;32573;51.290;6.926;2024-01-27T12:51:30;4.40;;;1.50;;
46835;SDS011;32573;51.290;6.926;2024-01-27T12:56:35;4.70;;;1.55;;
46835;SDS011;32573;51.290;6.926;2024-01-27T13:01:43;4.07;;;1.48;;
46835;SDS011;32573;51.290;6.926;2024-01-27T13:04:15;3.90;;;1.48;;
46835;SDS011;32573;51.290;6.926;2024-01-27T13:06:44;3.75;;;1.80;;
46835;SDS011;32573;51.290;6.926;2024-01-27T13:09:16;3.63;;;1.50;;
46835;SDS011;32573;51.290;6.926;2024-01-27T13:11:48;4.70;;;1.40;;
46835;SDS011;32573;51.290;6.926;2024-01-27T13:14:19;4.63;;;1.45;;
46835;SDS011;32573;51.290;6.926;2024-01-27T13:16:49;3.72;;;1.45;;
46835;SDS011;32573;51.290;6.926;2024-01-27T13:19:22;5.70;;;1.30;;
46835;SDS011;32573;51.290;6.926;2024-01-27T13:21:53;3.65;;;1.40;;
46835;SDS011;32573;51.290;6.926;2024-01-27T13:24:24;4.30;;;1.40;;
46835;SDS011;32573;51.290;6.926;2024-01-27T13:26:53;3.90;;;1.40;;
46835;SDS011;32573;51.290;6.926;2024-01-27T13:29:25;4.22;;;1.40;;
46835;SDS011;32573;51.290;6.926;2024-01-27T13:31:59;4.07;;;1.40;;
46835;SDS011;32573;51.290;6.926;2024-01-27T13:34:31;6.03;;;1.50;;
46835;SDS011;32573;51.290;6.926;2024-01-27T13:37:03;2.88;;;1.38;;
46835;SDS011;32573;51.290;6.926;2024-01-27T13:39:32;5.05;;;1.48;;
46835;SDS011;32573;51.290;6.926;2024-01-27T13:42:03;5.05;;;1.40;;
46835;SDS011;32573;51.290;6.926;2024-01-27T13:44:34;4.53;;;1.27;;
46835;SDS011;32573;51.290;6.926;2024-01-27T13:47:03;2.72;;;1.02;;
46835;SDS011;32573;51.290;6.926;2024-01-27T13:49:40;3.10;;;1.20;;
46835;SDS011;32573;51.290;6.926;2024-01-27T13:52:09;4.68;;;1.52;;
46835;SDS011;32573;51.290;6.926;2024-01-27T13:54:39;4.30;;;1.30;;
46835;SDS011;32573;51.290;6.926;2024-01-27T13:57:08;4.65;;;1.40;;
46835;SDS011;32573;51.290;6.926;2024-01-27T13:59:41;2.90;;;1.15;;
46835;SDS011;32573;51.290;6.926;2024-01-27T14:02:17;6.28;;;1.67;;
46835;SDS011;32573;51.290;6.926;2024-01-27T14:04:47;3.15;;;1.20;;
46835;SDS011;32573;51.290;6.926;2024-01-27T14:07:16;4.03;;;1.30;;
46835;SDS011;32573;51.290;6.926;2024-01-27T14:09:48;2.35;;;1.10;;
46835;SDS011;32573;51.290;6.926;2024-01-27T14:12:17;2.85;;;1.58;;
46835;SDS011;32573;51.290;6.926;2024-01-27T14:14:48;3.13;;;1.20;;
46835;SDS011;32573;51.290;6.926;2024-01-27T14:17:18;4.35;;;1.40;;
46835;SDS011;32573;51.290;6.926;2024-01-27T14:19:48;3.58;;;1.20;;
46835;SDS011;32573;51.290;6.926;2024-01-27T14:22:18;2.70;;;1.30;;
46835;SDS011;32573;51.290;6.926;2024-01-27T14:24:47;5.43;;;1.30;;
46835;SDS011;32573;51.290;6.926;2024-01-27T14:27:19;2.85;;;1.10;;
46835;SDS011;32573;51.290;6.926;2024-01-27T14:29:54;2.43;;;1.00;;
46835;SDS011;32573;51.290;6.926;2024-01-27T14:32:23;3.38;;;1.23;;
46835;SDS011;32573;51.290;6.926;2024-01-27T14:34:52;1.92;;;0.90;;
46835;SDS011;32573;51.290;6.926;2024-01-27T14:37:21;4.50;;;1.35;;
46835;SDS011;32573;51.290;6.926;2024-01-27T14:39:51;3.97;;;1.23;;
46835;SDS011;32573;51.290;6.926;2024-01-27T14:42:20;3.38;;;1.20;;
46835;SDS011;32573;51.290;6.926;2024-01-27T14:44:50;3.30;;;1.15;;
46835;SDS011;32573;51.290;6.926;2024-01-27T14:47:22;2.97;;;1.30;;
46835;SDS011;32573;51.290;6.926;2024-01-27T14:49:52;3.17;;;1.05;;
46835;SDS011;32573;51.290;6.926;2024-01-27T14:52:22;3.22;;;1.17;;
46835;SDS011;32573;51.290;6.926;2024-01-27T14:54:54;3.28;;;1.20;;
46835;SDS011;32573;51.290;6.926;2024-01-27T14:57:23;3.33;;;1.10;;
46835;SDS011;32573;51.290;6.926;2024-01-27T14:59:54;3.60;;;1.10;;
46835;SDS011;32573;51.290;6.926;2024-01-27T15:02:27;2.17;;;1.00;;
46835;SDS011;32573;51.290;6.926;2024-01-27T15:04:57;4.15;;;1.20;;
46835;SDS011;32573;51.290;6.926;2024-01-27T15:07:29;3.30;;;1.00;;
46835;SDS011;32573;51.290;6.926;2024-01-27T15:10:00;3.33;;;1.10;;
46835;SDS011;32573;51.290;6.926;2024-01-27T15:12:29;3.20;;;1.13;;
46835;SDS011;32573;51.290;6.926;2024-01-27T15:14:59;2.58;;;1.00;;